Terminal Aerodrome Forecast
Issued by NWS

Home | Current Version | Previous Version | Text Only | Print | Product List | Glossary Off
Versions: 1 2 3 4 5 6 7 8 9 10 11 12 13 14 15 16 17 18 19

000
FTUS43 KMPX 260700 AAA
TAFAXN
TAF AMD
KAXN 260701Z 2607/2706 29007KT P6SM SKC
      TEMPO 2607/2608 BKN030
     FM261000 32006KT P6SM SCT200
     FM270000 27003KT P6SM BKN100=

USA.gov is the U.S. government's official web portal to all federal, state and local government web resources and services.